Shell Beach, California
Current Conditions -  °F | °C
As of 3:56 PM on Sunday 21 Dec 2014 (Local Time) from KSBP Reporting Station
Clear Clear  
Wind Chill: 66°   Ceiling: Unl
Heat Index: 66°   Visibility: 10mi
Dew Point: 54°   Wind: 9mph
Humidity: 65%   Direction: 350°N
Pressure: 30.19"   Gusts: NA
Location:  35.1597°N, 120.657°W
Report Text: KSBP 212356Z AUTO 35008KT 10SM CLR 19/12 A3019 RMK AO2 SLP221 T01890122 10206 20172 53001
Loading
Personal Weather Stations






























Interactive Weather Map New forecast layout! Learn more

10-Day Weather Forecast

Advertisements
Track Severe Weather on mobile